Time;durP1;ratioP1;P1;durP2;ratioP2;P2;SDS_P1;SDS_P2;PMS_P1;PMS_P2;Temp;Humidity;BMP_temperature;BMP_pressure;BME280_temperature;BME280_humidity;BME280_pressure;Samples;Min_cycle;Max_cycle;Signal;HPM_P1;HPM_P2
2023/05/18 00:02:07;;;;;;;12.70;11.40;;;5.30;99.90;;;;;;4969342;28;20206;-78
2023/05/18 00:04:35;;;;;;;14.47;13.07;;;5.40;99.90;;;;;;4972715;28;20277;-79
2023/05/18 00:07:03;;;;;;;13.67;12.27;;;5.30;99.90;;;;;;4985918;28;20211;-78
2023/05/18 00:09:31;;;;;;;14.30;13.00;;;5.30;99.90;;;;;;4986004;28;20731;-78
2023/05/18 00:12:00;;;;;;;12.07;10.90;;;5.30;99.90;;;;;;4968395;28;20234;-77
2023/05/18 00:14:27;;;;;;;14.17;12.83;;;5.30;99.90;;;;;;4978471;28;20223;-78
2023/05/18 00:16:54;;;;;;;14.50;13.17;;;5.20;99.90;;;;;;4985192;28;20201;-78
2023/05/18 00:19:22;;;;;;;14.43;12.97;;;5.20;99.90;;;;;;4985306;28;20236;-77
2023/05/18 00:21:51;;;;;;;13.17;12.00;;;5.20;99.90;;;;;;4985271;28;20206;-78
2023/05/18 00:24:18;;;;;;;13.93;12.73;;;5.10;99.90;;;;;;4967179;28;20661;-77
2023/05/18 00:26:47;;;;;;;14.33;12.90;;;5.10;99.90;;;;;;4968299;28;20202;-78
2023/05/18 00:29:15;;;;;;;14.97;13.07;;;5.10;99.90;;;;;;4968233;28;20285;-78
2023/05/18 00:31:44;;;;;;;13.30;11.90;;;5.10;99.90;;;;;;4972096;28;20217;-78
2023/05/18 00:34:12;;;;;;;12.87;11.67;;;5.10;99.90;;;;;;4968538;28;20765;-78
2023/05/18 00:36:40;;;;;;;12.57;11.37;;;5.00;99.90;;;;;;4968352;28;20201;-78
2023/05/18 00:39:09;;;;;;;13.90;12.60;;;5.00;99.90;;;;;;4977701;28;20225;-78
2023/05/18 00:41:36;;;;;;;14.20;12.93;;;5.00;99.90;;;;;;4976546;28;20202;-79
2023/05/18 00:44:03;;;;;;;14.47;12.97;;;4.90;99.90;;;;;;4975023;28;20225;-78
2023/05/18 00:46:32;;;;;;;15.03;13.27;;;4.90;99.90;;;;;;4981352;28;20194;-78
2023/05/18 00:49:00;;;;;;;13.70;12.30;;;4.80;99.90;;;;;;4976243;28;20721;-77
2023/05/18 00:51:28;;;;;;;13.63;12.27;;;4.80;99.90;;;;;;4977686;28;20664;-77
2023/05/18 00:53:56;;;;;;;13.43;12.03;;;4.90;99.90;;;;;;4983859;28;20292;-77
2023/05/18 00:56:23;;;;;;;13.70;12.23;;;4.80;99.90;;;;;;4982014;28;20206;-78
2023/05/18 00:58:54;;;;;;;13.27;12.03;;;4.80;99.90;;;;;;4983819;28;20222;-78
2023/05/18 01:01:26;;;;;;;12.60;11.40;;;4.80;99.90;;;;;;4984204;28;20240;-78
2023/05/18 01:03:56;;;;;;;12.67;11.57;;;4.80;99.90;;;;;;4980484;28;20253;-79
2023/05/18 01:06:25;;;;;;;13.20;12.03;;;4.80;99.90;;;;;;4975868;28;20206;-78
2023/05/18 01:08:52;;;;;;;12.43;11.23;;;4.70;99.90;;;;;;4984557;28;20198;-78
2023/05/18 01:11:26;;;;;;;13.13;12.03;;;4.70;99.90;;;;;;4984018;28;20217;-78
2023/05/18 01:14:02;;;;;;;12.63;11.50;;;4.70;99.90;;;;;;4983957;28;20202;-78
2023/05/18 01:16:36;;;;;;;13.07;11.57;;;4.70;99.90;;;;;;4966210;28;20212;-78
2023/05/18 01:19:15;;;;;;;11.90;10.33;;;4.70;99.90;;;;;;4983948;28;20218;-77
2023/05/18 01:21:57;;;;;;;11.23;10.13;;;4.70;99.90;;;;;;4978656;28;20630;-78
2023/05/18 01:24:32;;;;;;;11.97;10.77;;;4.60;99.90;;;;;;4974781;28;20296;-78
2023/05/18 01:27:02;;;;;;;11.83;10.83;;;4.60;99.90;;;;;;4979355;28;20209;-78
2023/05/18 01:29:30;;;;;;;12.60;11.27;;;4.60;99.90;;;;;;4974341;28;20222;-77
2023/05/18 01:31:57;;;;;;;12.30;11.20;;;4.50;99.90;;;;;;4982050;28;20252;-78
2023/05/18 01:34:24;;;;;;;13.57;12.27;;;4.60;99.90;;;;;;4975032;28;20225;-78
2023/05/18 01:36:51;;;;;;;12.63;11.50;;;4.50;99.90;;;;;;4984317;28;20269;-78
2023/05/18 01:39:18;;;;;;;13.27;11.93;;;4.50;99.90;;;;;;4975699;28;20214;-77
2023/05/18 01:41:52;;;;;;;12.43;11.33;;;4.40;99.90;;;;;;4983839;28;20258;-78
2023/05/18 01:44:26;;;;;;;12.10;11.10;;;4.40;99.90;;;;;;4980806;28;20236;-77
2023/05/18 01:46:57;;;;;;;13.23;11.83;;;4.40;99.90;;;;;;4976368;28;20210;-77
2023/05/18 01:49:31;;;;;;;12.97;11.77;;;4.40;99.90;;;;;;4991605;28;20640;-79
2023/05/18 01:52:04;;;;;;;14.93;12.10;;;4.30;99.90;;;;;;4979628;28;20198;-77
2023/05/18 01:54:33;;;;;;;13.63;12.33;;;4.30;99.90;;;;;;4974956;28;20251;-78
2023/05/18 01:57:01;;;;;;;13.40;12.00;;;4.30;99.90;;;;;;4983228;28;20205;-77
2023/05/18 01:59:30;;;;;;;12.20;11.17;;;4.30;99.90;;;;;;4975673;28;20304;-78
2023/05/18 02:01:59;;;;;;;13.33;12.13;;;4.20;99.90;;;;;;4980542;28;20210;-78
2023/05/18 02:04:26;;;;;;;12.80;11.53;;;4.20;99.90;;;;;;4976688;28;20218;-78
2023/05/18 02:06:54;;;;;;;12.80;11.50;;;4.10;99.90;;;;;;4975205;28;20206;-77
2023/05/18 02:09:21;;;;;;;12.33;11.13;;;4.10;99.90;;;;;;4978214;28;20584;-79
2023/05/18 02:11:48;;;;;;;12.73;11.63;;;4.10;99.90;;;;;;4975866;28;20198;-78
2023/05/18 02:14:15;;;;;;;12.57;11.30;;;4.10;99.90;;;;;;4979626;28;20222;-79
2023/05/18 02:16:45;;;;;;;12.83;11.73;;;4.20;99.90;;;;;;4982835;28;20276;-77
2023/05/18 02:19:13;;;;;;;13.30;12.10;;;4.10;99.90;;;;;;4981958;28;20222;-78
2023/05/18 02:21:42;;;;;;;12.00;10.90;;;4.10;99.90;;;;;;4976893;28;20198;-79
2023/05/18 02:24:09;;;;;;;12.00;10.90;;;4.00;99.90;;;;;;4974718;28;20221;-77
2023/05/18 02:26:37;;;;;;;11.60;10.70;;;4.00;99.90;;;;;;4978331;28;20669;-77
2023/05/18 02:29:05;;;;;;;12.70;11.43;;;4.00;99.90;;;;;;4975255;28;20240;-78
2023/05/18 02:31:32;;;;;;;12.30;11.03;;;4.00;99.90;;;;;;4985943;28;20275;-78
2023/05/18 02:34:02;;;;;;;12.47;11.37;;;4.00;99.90;;;;;;4975850;28;20202;-78
2023/05/18 02:36:35;;;;;;;12.27;11.17;;;4.00;99.90;;;;;;4979226;28;20208;-78
2023/05/18 02:39:04;;;;;;;11.63;10.53;;;3.90;99.90;;;;;;4976666;28;20202;-78
2023/05/18 02:41:30;;;;;;;11.53;10.43;;;3.90;99.90;;;;;;4972143;28;20674;-79
2023/05/18 02:43:57;;;;;;;12.03;10.93;;;3.90;99.90;;;;;;4973145;28;20276;-78
2023/05/18 02:46:24;;;;;;;12.70;11.60;;;3.90;99.90;;;;;;4975849;28;20264;-78
2023/05/18 02:48:51;;;;;;;12.10;11.00;;;3.90;99.90;;;;;;4971254;28;20682;-78
2023/05/18 02:51:20;;;;;;;12.33;11.23;;;3.90;99.90;;;;;;4969790;28;20634;-79
2023/05/18 02:53:47;;;;;;;12.47;11.27;;;3.90;99.90;;;;;;4956554;28;20198;-80
2023/05/18 02:56:16;;;;;;;12.30;11.10;;;3.90;99.90;;;;;;4954630;28;20268;-82
2023/05/18 02:58:49;;;;;;;11.97;10.97;;;3.90;99.90;;;;;;4965972;28;20587;-79
2023/05/18 03:01:25;;;;;;;12.27;11.10;;;3.90;99.90;;;;;;4960293;28;20256;-78
2023/05/18 03:03:52;;;;;;;11.17;10.17;;;3.80;99.90;;;;;;4955293;28;20209;-78
2023/05/18 03:06:22;;;;;;;11.60;10.50;;;3.80;99.90;;;;;;4971442;28;20650;-79
2023/05/18 03:08:50;;;;;;;12.77;11.23;;;3.70;99.90;;;;;;4955854;28;20233;-79
2023/05/18 03:11:17;;;;;;;12.47;11.23;;;3.70;99.90;;;;;;4955193;28;20280;-80
2023/05/18 03:13:44;;;;;;;12.63;11.30;;;3.60;99.90;;;;;;4966875;28;20213;-79
2023/05/18 03:16:12;;;;;;;13.20;11.80;;;3.60;99.90;;;;;;4958453;28;20198;-79
2023/05/18 03:18:39;;;;;;;13.57;12.20;;;3.70;99.90;;;;;;4960925;28;20252;-79
2023/05/18 03:21:06;;;;;;;14.67;13.23;;;3.60;99.90;;;;;;4948408;28;20225;-79
2023/05/18 03:23:35;;;;;;;13.73;11.17;;;3.70;99.90;;;;;;4970781;28;20265;-79
2023/05/18 03:26:02;;;;;;;12.90;11.60;;;3.70;99.90;;;;;;4971468;28;20314;-80
2023/05/18 03:28:30;;;;;;;12.13;11.03;;;3.70;99.90;;;;;;4958548;28;20206;-79
2023/05/18 03:30:57;;;;;;;12.80;11.00;;;3.70;99.90;;;;;;4968142;28;20205;-80
2023/05/18 03:33:27;;;;;;;14.10;12.00;;;3.70;99.90;;;;;;4954930;28;20206;-79
2023/05/18 03:35:54;;;;;;;12.20;11.00;;;3.60;99.90;;;;;;4958282;28;20309;-79
2023/05/18 03:38:20;;;;;;;12.83;11.53;;;3.60;99.90;;;;;;4955014;28;20214;-80
2023/05/18 03:40:56;;;;;;;12.67;11.37;;;3.60;99.90;;;;;;4951947;28;20222;-79
2023/05/18 03:43:24;;;;;;;13.43;12.10;;;3.60;99.90;;;;;;4976623;28;20202;-79
2023/05/18 03:45:52;;;;;;;12.23;11.03;;;3.60;99.90;;;;;;4963174;28;20214;-81
2023/05/18 03:48:19;;;;;;;12.73;11.43;;;3.60;99.90;;;;;;4968991;28;20237;-80
2023/05/18 03:50:47;;;;;;;13.40;12.27;;;3.60;99.90;;;;;;4967416;28;20281;-80
2023/05/18 03:53:17;;;;;;;14.27;13.07;;;3.60;99.90;;;;;;4969732;28;20276;-80
2023/05/18 03:55:44;;;;;;;15.63;14.23;;;3.60;99.90;;;;;;4962912;28;20238;-79
2023/05/18 03:58:13;;;;;;;15.60;14.10;;;3.60;99.90;;;;;;4968335;28;20205;-80
2023/05/18 04:00:41;;;;;;;15.67;14.23;;;3.60;99.90;;;;;;4974121;28;20214;-79
2023/05/18 04:03:11;;;;;;;15.13;13.73;;;3.70;99.90;;;;;;4976733;28;20603;-79
2023/05/18 04:05:38;;;;;;;15.53;13.77;;;3.80;99.90;;;;;;4978582;28;20229;-79
2023/05/18 04:08:06;;;;;;;14.27;12.90;;;3.80;99.90;;;;;;4969755;28;20289;-79
2023/05/18 04:10:33;;;;;;;14.87;13.30;;;3.90;99.90;;;;;;4967280;28;20209;-79
2023/05/18 04:13:00;;;;;;;14.40;13.00;;;4.00;99.90;;;;;;4973150;28;20206;-79
2023/05/18 04:15:28;;;;;;;14.00;12.60;;;4.00;99.90;;;;;;4975588;28;20282;-78
2023/05/18 04:17:55;;;;;;;13.83;12.63;;;4.10;99.90;;;;;;4973548;28;20736;-78
2023/05/18 04:20:22;;;;;;;15.70;14.20;;;4.10;99.90;;;;;;4971778;28;20340;-80
2023/05/18 04:22:49;;;;;;;14.43;13.13;;;4.20;99.90;;;;;;4969416;28;20260;-80
2023/05/18 04:25:17;;;;;;;14.83;13.50;;;4.20;99.90;;;;;;4966851;28;20217;-79
2023/05/18 04:27:44;;;;;;;14.60;13.27;;;4.20;99.90;;;;;;4976363;28;20198;-80
2023/05/18 04:30:13;;;;;;;14.50;13.23;;;4.30;99.90;;;;;;4967311;28;20591;-79
2023/05/18 04:32:43;;;;;;;14.67;12.43;;;4.40;99.90;;;;;;4978163;28;20202;-80
2023/05/18 04:35:11;;;;;;;14.47;13.10;;;4.50;99.90;;;;;;4964614;28;20221;-82
2023/05/18 04:37:40;;;;;;;13.40;12.20;;;4.60;99.90;;;;;;4972169;28;20226;-83
2023/05/18 04:40:12;;;;;;;13.73;12.33;;;4.80;99.90;;;;;;4965074;28;20218;-80
2023/05/18 04:42:43;;;;;;;15.23;13.70;;;4.90;99.90;;;;;;4960437;28;20206;-79
2023/05/18 04:45:15;;;;;;;15.87;14.57;;;5.10;99.90;;;;;;4964078;28;20658;-80
2023/05/18 04:47:45;;;;;;;13.43;12.30;;;5.20;99.90;;;;;;4963070;28;20260;-78
2023/05/18 04:50:14;;;;;;;13.33;12.03;;;5.40;99.90;;;;;;4968851;28;20206;-85
2023/05/18 04:52:47;;;;;;;15.17;13.77;;;5.70;99.90;;;;;;4950033;28;20199;-81
2023/05/18 04:55:18;;;;;;;13.73;12.33;;;6.00;99.90;;;;;;4952978;28;20242;-82
2023/05/18 04:57:46;;;;;;;14.63;13.27;;;6.00;99.90;;;;;;4981293;28;20194;-80
2023/05/18 05:00:14;;;;;;;14.43;13.13;;;6.20;99.90;;;;;;4970672;28;20213;-78
2023/05/18 05:02:41;;;;;;;15.70;14.40;;;6.30;99.90;;;;;;4968838;28;20200;-78
2023/05/18 05:05:09;;;;;;;15.33;13.93;;;6.40;99.90;;;;;;4975199;28;20224;-77
2023/05/18 05:07:36;;;;;;;15.70;14.30;;;6.50;99.90;;;;;;4970170;28;20290;-77
2023/05/18 05:10:03;;;;;;;15.80;13.83;;;6.60;99.90;;;;;;4982487;28;20191;-78
2023/05/18 05:12:30;;;;;;;14.43;13.33;;;6.70;99.90;;;;;;4979979;28;20208;-78
2023/05/18 05:14:57;;;;;;;16.33;14.83;;;6.90;99.90;;;;;;4974691;28;20255;-78
2023/05/18 05:17:25;;;;;;;11.47;7.50;;;6.90;99.90;;;;;;4978554;28;20198;-78
2023/05/18 05:19:52;;;;;;;8.40;6.50;;;7.10;99.90;;;;;;4980429;28;20228;-77
2023/05/18 05:22:20;;;;;;;11.53;10.40;;;7.30;99.90;;;;;;4978219;28;20210;-78
2023/05/18 05:24:47;;;;;;;13.70;12.50;;;7.50;99.90;;;;;;4969768;28;20246;-78
2023/05/18 05:27:14;;;;;;;9.67;8.77;;;7.70;99.90;;;;;;4979642;28;20205;-77
2023/05/18 05:29:42;;;;;;;8.63;6.70;;;7.70;99.90;;;;;;4975052;28;20248;-78
2023/05/18 05:32:11;;;;;;;13.60;12.40;;;7.80;99.90;;;;;;4978787;28;20215;-74
2023/05/18 05:34:38;;;;;;;9.30;6.90;;;8.00;99.90;;;;;;4966258;28;20249;-76
2023/05/18 05:37:05;;;;;;;14.33;12.93;;;8.10;99.90;;;;;;4983830;28;20198;-77
2023/05/18 05:39:33;;;;;;;10.93;8.27;;;8.20;99.90;;;;;;4981322;28;20248;-77
2023/05/18 05:42:00;;;;;;;14.60;13.37;;;8.40;99.90;;;;;;4978283;28;20213;-77
2023/05/18 05:44:27;;;;;;;15.50;13.97;;;8.70;99.90;;;;;;4982176;28;20828;-78
2023/05/18 05:46:54;;;;;;;14.23;13.00;;;9.10;99.90;;;;;;4974306;28;20212;-75
2023/05/18 05:49:21;;;;;;;16.53;13.60;;;9.60;99.90;;;;;;4969636;28;20706;-76
2023/05/18 05:51:48;;;;;;;14.43;13.20;;;9.70;99.90;;;;;;4971878;28;20280;-75
2023/05/18 05:54:15;;;;;;;13.73;12.57;;;9.90;99.90;;;;;;4972936;28;20700;-76
2023/05/18 05:56:44;;;;;;;13.70;12.50;;;9.80;99.90;;;;;;4972032;28;20195;-77
2023/05/18 05:59:12;;;;;;;13.20;12.20;;;9.90;99.90;;;;;;4967903;28;20208;-77
2023/05/18 06:01:39;;;;;;;13.17;12.07;;;9.90;99.90;;;;;;4978843;28;20251;-76
2023/05/18 06:04:09;;;;;;;12.93;11.83;;;9.90;99.90;;;;;;4967127;28;20224;-75
2023/05/18 06:06:37;;;;;;;13.90;12.57;;;10.00;99.90;;;;;;4972087;28;20212;-76
2023/05/18 06:09:05;;;;;;;13.30;11.97;;;10.10;99.90;;;;;;4969440;28;20230;-76
2023/05/18 06:11:31;;;;;;;11.67;10.57;;;10.10;99.90;;;;;;4971873;28;20196;-75
2023/05/18 06:14:00;;;;;;;11.37;9.87;;;10.00;99.90;;;;;;4970748;28;20683;-76
2023/05/18 06:16:27;;;;;;;6.77;5.53;;;10.20;99.90;;;;;;4975846;28;20672;-76
2023/05/18 06:18:54;;;;;;;10.60;7.30;;;10.20;99.90;;;;;;4972419;28;20219;-77
2023/05/18 06:21:21;;;;;;;8.20;6.07;;;10.30;99.90;;;;;;4967156;28;20238;-76
2023/05/18 06:23:48;;;;;;;8.00;6.20;;;10.70;99.90;;;;;;4967528;28;20215;-76
2023/05/18 06:26:31;;;;;;;12.07;8.43;;;11.00;99.90;;;;;;4971485;28;20294;-76
2023/05/18 06:29:15;;;;;;;9.20;8.30;;;11.30;99.90;;;;;;4961925;28;20659;-76
2023/05/18 06:31:57;;;;;;;10.73;9.37;;;11.50;99.90;;;;;;4968867;28;20288;-75
2023/05/18 06:34:36;;;;;;;11.60;9.00;;;11.50;99.90;;;;;;4966686;28;20221;-76
2023/05/18 06:37:03;;;;;;;10.63;9.53;;;11.40;99.90;;;;;;4972608;28;20701;-75
2023/05/18 06:39:30;;;;;;;10.53;7.70;;;11.80;99.90;;;;;;4967586;28;20208;-77
2023/05/18 06:41:57;;;;;;;10.07;7.80;;;12.30;99.90;;;;;;4973282;28;20229;-76
2023/05/18 06:44:31;;;;;;;11.80;6.23;;;12.80;99.90;;;;;;4965767;28;20222;-76
2023/05/18 06:47:05;;;;;;;8.03;7.03;;;13.20;99.90;;;;;;4966470;28;20195;-76
2023/05/18 06:49:32;;;;;;;5.83;4.73;;;13.60;99.90;;;;;;4967389;28;20635;-75
2023/05/18 06:51:59;;;;;;;10.97;5.20;;;13.90;99.90;;;;;;4969717;28;20685;-77
2023/05/18 06:54:28;;;;;;;9.07;5.03;;;14.10;99.90;;;;;;4970746;28;20943;-76
2023/05/18 06:56:55;;;;;;;9.60;6.47;;;14.30;99.90;;;;;;4967862;28;20294;-75
2023/05/18 06:59:22;;;;;;;10.87;4.93;;;14.50;99.90;;;;;;4973346;28;20208;-76
2023/05/18 07:01:50;;;;;;;11.07;5.10;;;14.80;99.90;;;;;;4978704;28;20226;-75
2023/05/18 07:04:18;;;;;;;8.40;5.03;;;15.20;99.90;;;;;;4965531;28;20256;-76
2023/05/18 07:06:44;;;;;;;8.00;5.67;;;14.80;99.90;;;;;;4974667;28;20201;-76
2023/05/18 07:09:11;;;;;;;11.20;5.57;;;15.10;99.90;;;;;;4974636;28;20205;-76
2023/05/18 07:11:39;;;;;;;10.03;5.43;;;15.50;99.90;;;;;;4975058;28;20562;-77
2023/05/18 07:14:06;;;;;;;6.87;4.93;;;15.20;99.90;;;;;;4974191;28;20225;-76
2023/05/18 07:16:33;;;;;;;10.13;5.23;;;14.90;99.90;;;;;;4977539;28;20189;-76
2023/05/18 07:19:01;;;;;;;8.40;4.40;;;15.30;99.90;;;;;;4975772;28;20202;-75
2023/05/18 07:21:28;;;;;;;8.90;5.40;;;15.40;99.90;;;;;;4984140;28;20253;-76
2023/05/18 07:23:55;;;;;;;9.93;4.80;;;15.20;99.90;;;;;;4968053;28;20213;-77
2023/05/18 07:26:22;;;;;;;9.80;4.70;;;14.90;99.90;;;;;;4972673;28;20194;-78
2023/05/18 07:28:50;;;;;;;9.40;4.80;;;14.80;99.90;;;;;;4975721;28;20213;-77
2023/05/18 07:31:19;;;;;;;9.53;4.80;;;15.30;99.90;;;;;;4979375;28;20232;-77
2023/05/18 07:33:46;;;;;;;10.27;5.10;;;15.70;99.90;;;;;;4979545;28;20197;-78
2023/05/18 07:36:15;;;;;;;8.67;4.67;;;15.70;99.90;;;;;;4979145;28;20637;-78
2023/05/18 07:38:41;;;;;;;8.17;4.00;;;16.10;99.90;;;;;;4973164;28;20219;-79
2023/05/18 07:41:08;;;;;;;8.43;4.27;;;16.50;99.90;;;;;;4977599;28;20231;-79
2023/05/18 07:43:35;;;;;;;6.90;4.27;;;16.80;99.90;;;;;;4978717;28;20297;-79
2023/05/18 07:46:02;;;;;;;8.83;4.93;;;17.30;99.90;;;;;;4970472;28;20222;-79
2023/05/18 07:48:29;;;;;;;9.70;4.70;;;17.40;99.90;;;;;;4980393;28;20555;-79
2023/05/18 07:50:56;;;;;;;8.30;5.43;;;17.40;99.90;;;;;;4984968;28;20194;-80
2023/05/18 07:53:24;;;;;;;9.00;4.80;;;17.30;99.90;;;;;;4987226;28;20211;-78
2023/05/18 07:55:51;;;;;;;7.13;4.60;;;17.20;99.90;;;;;;4984300;28;20266;-78
2023/05/18 07:58:18;;;;;;;6.87;5.37;;;17.40;99.90;;;;;;4982220;28;20207;-77
2023/05/18 08:00:45;;;;;;;7.30;5.70;;;17.60;99.90;;;;;;4984855;28;20746;-77
2023/05/18 08:03:12;;;;;;;9.80;4.97;;;17.50;99.90;;;;;;4973670;28;20208;-78
2023/05/18 08:05:38;;;;;;;9.90;5.53;;;17.80;99.90;;;;;;4974932;28;20238;-78
2023/05/18 08:08:05;;;;;;;7.43;4.60;;;18.00;99.90;;;;;;4972217;28;20212;-78
2023/05/18 08:10:33;;;;;;;8.57;5.63;;;18.10;99.90;;;;;;4978826;28;20689;-80
2023/05/18 08:13:00;;;;;;;8.17;4.90;;;18.00;99.90;;;;;;4980375;28;20267;-79
2023/05/18 08:15:27;;;;;;;7.20;5.10;;;17.90;99.90;;;;;;4979972;28;20712;-77
2023/05/18 08:17:55;;;;;;;7.13;5.20;;;18.20;99.90;;;;;;4984402;28;20201;-77
2023/05/18 08:20:24;;;;;;;10.63;6.03;;;18.50;99.90;;;;;;4988436;28;20252;-78
2023/05/18 08:22:51;;;;;;;9.03;5.13;;;18.60;99.90;;;;;;4992120;28;20312;-78
2023/05/18 08:25:18;;;;;;;7.27;5.10;;;18.80;99.90;;;;;;4982462;28;20724;-78
2023/05/18 08:27:46;;;;;;;7.87;5.10;;;18.90;99.90;;;;;;4977431;28;20876;-79
2023/05/18 08:30:13;;;;;;;8.90;5.00;;;18.70;99.90;;;;;;4981667;28;20198;-78
2023/05/18 08:32:40;;;;;;;9.50;4.80;;;18.50;99.90;;;;;;4981067;28;20229;-77
2023/05/18 08:35:08;;;;;;;9.40;4.90;;;18.50;99.90;;;;;;4972339;28;20229;-78
2023/05/18 08:37:36;;;;;;;7.20;4.53;;;18.80;99.90;;;;;;4979873;28;20198;-78
2023/05/18 08:40:06;;;;;;;9.20;4.17;;;19.00;99.90;;;;;;4975955;28;20684;-80
2023/05/18 08:42:39;;;;;;;7.03;4.30;;;19.40;99.90;;;;;;4974141;28;20733;-78
2023/05/18 08:45:13;;;;;;;8.20;4.77;;;19.70;99.90;;;;;;4980161;28;20222;-78
2023/05/18 08:47:40;;;;;;;10.20;5.10;;;20.00;99.90;;;;;;4975427;28;20696;-78
2023/05/18 08:50:12;;;;;;;6.00;4.60;;;19.50;99.90;;;;;;4985371;28;20198;-78
2023/05/18 08:52:42;;;;;;;9.37;4.90;;;19.20;99.90;;;;;;4986894;28;20198;-79
2023/05/18 08:55:12;;;;;;;8.93;5.73;;;19.50;99.90;;;;;;4980983;28;20221;-77
2023/05/18 08:57:42;;;;;;;9.90;5.60;;;19.00;99.90;;;;;;4976823;28;20225;-79
2023/05/18 09:00:11;;;;;;;7.97;4.70;;;18.10;99.90;;;;;;4977880;28;20201;-78
2023/05/18 09:02:39;;;;;;;9.20;4.93;;;18.40;99.90;;;;;;4978724;28;20218;-78
2023/05/18 09:05:07;;;;;;;9.33;5.03;;;18.20;99.90;;;;;;4974827;28;20229;-78
2023/05/18 09:07:34;;;;;;;9.03;4.97;;;18.10;99.90;;;;;;4981965;28;20201;-77
2023/05/18 09:10:02;;;;;;;11.53;7.87;;;18.20;99.90;;;;;;4975717;28;20212;-78
2023/05/18 09:12:30;;;;;;;8.47;7.47;;;17.90;99.90;;;;;;4970447;28;20861;-77
2023/05/18 09:14:59;;;;;;;11.57;9.30;;;18.10;99.90;;;;;;4980882;28;20225;-78
2023/05/18 09:17:27;;;;;;;10.90;7.07;;;17.80;99.90;;;;;;4972030;28;20232;-77
2023/05/18 09:19:54;;;;;;;8.60;6.83;;;17.50;99.90;;;;;;4980695;28;20225;-79
2023/05/18 09:22:21;;;;;;;11.83;5.80;;;17.40;99.90;;;;;;4984105;28;20225;-77
2023/05/18 09:24:49;;;;;;;10.07;6.23;;;17.60;99.90;;;;;;4981225;28;20220;-80
2023/05/18 09:27:16;;;;;;;7.20;6.47;;;18.10;99.90;;;;;;4982620;28;20229;-80
2023/05/18 09:29:52;;;;;;;5.60;4.47;;;18.70;99.90;;;;;;4983252;28;20233;-78
2023/05/18 09:32:20;;;;;;;9.43;8.53;;;19.10;99.90;;;;;;4978809;28;20205;-77
2023/05/18 09:34:48;;;;;;;9.63;8.70;;;19.10;99.90;;;;;;4981935;28;20546;-79
2023/05/18 09:37:17;;;;;;;10.00;9.10;;;19.00;99.90;;;;;;4976544;28;20225;-77
2023/05/18 09:39:44;;;;;;;7.23;5.40;;;19.00;99.90;;;;;;4957293;28;20682;-80
2023/05/18 09:42:11;;;;;;;8.70;5.20;;;18.90;99.90;;;;;;4940645;28;20307;-80
2023/05/18 09:44:37;;;;;;;7.67;5.73;;;19.10;99.90;;;;;;4965750;28;20237;-77
2023/05/18 09:47:09;;;;;;;8.40;5.17;;;19.80;99.90;;;;;;4955538;28;20276;-79
2023/05/18 09:49:36;;;;;;;8.37;4.40;;;20.40;99.90;;;;;;4962878;28;20217;-78
2023/05/18 09:52:08;;;;;;;13.43;5.33;;;20.20;99.90;;;;;;4979060;28;20280;-78
2023/05/18 09:54:36;;;;;;;8.70;6.27;;;19.80;99.90;;;;;;4960593;28;20237;-77
2023/05/18 09:57:04;;;;;;;8.57;4.63;;;19.90;99.90;;;;;;4961273;28;20209;-77
2023/05/18 09:59:32;;;;;;;6.23;4.10;;;19.50;99.90;;;;;;4960425;28;20213;-76
2023/05/18 10:02:00;;;;;;;10.73;5.00;;;19.40;99.90;;;;;;4974624;28;20273;-76
2023/05/18 10:04:35;;;;;;;7.50;4.60;;;19.60;99.90;;;;;;4975033;28;20338;-76
2023/05/18 10:07:09;;;;;;;6.50;4.20;;;19.40;99.90;;;;;;4979381;28;20822;-80
2023/05/18 10:09:36;;;;;;;8.27;4.50;;;19.70;99.90;;;;;;4972524;28;20194;-78
2023/05/18 10:12:03;;;;;;;8.60;7.50;;;19.50;99.90;;;;;;4973577;28;20396;-79
2023/05/18 10:14:35;;;;;;;9.03;4.33;;;19.60;99.90;;;;;;4973487;28;20604;-77
2023/05/18 10:17:03;;;;;;;7.77;4.17;;;20.10;99.90;;;;;;4956788;28;20233;-76
2023/05/18 10:19:34;;;;;;;9.70;8.70;;;20.10;99.90;;;;;;4973056;28;20193;-77
2023/05/18 10:22:05;;;;;;;9.13;4.40;;;20.30;99.90;;;;;;4952265;28;20250;-77
2023/05/18 10:24:35;;;;;;;9.43;3.97;;;20.30;99.90;;;;;;4970523;28;20218;-78
2023/05/18 10:27:06;;;;;;;5.87;4.43;;;20.30;99.90;;;;;;4968734;28;20196;-76
2023/05/18 10:29:33;;;;;;;7.90;3.73;;;20.20;99.90;;;;;;4971813;28;20198;-77
2023/05/18 10:32:02;;;;;;;9.70;4.57;;;19.50;99.90;;;;;;4972314;28;20228;-76
2023/05/18 10:34:29;;;;;;;7.57;6.03;;;19.30;99.90;;;;;;4975729;28;20216;-76
2023/05/18 10:36:57;;;;;;;8.83;7.43;;;19.00;99.90;;;;;;4960991;28;20666;-77
2023/05/18 10:39:27;;;;;;;9.80;7.53;;;18.90;99.90;;;;;;4965030;28;20197;-79
2023/05/18 10:41:55;;;;;;;6.83;6.10;;;18.60;99.90;;;;;;4973063;28;20225;-78
2023/05/18 10:44:24;;;;;;;7.13;4.00;;;18.60;99.90;;;;;;4974218;28;20355;-80
2023/05/18 10:46:52;;;;;;;8.50;6.13;;;18.90;99.90;;;;;;4976223;28;20198;-77
2023/05/18 10:49:24;;;;;;;7.33;4.17;;;18.60;99.90;;;;;;4975581;28;20197;-80
2023/05/18 10:51:54;;;;;;;8.83;7.33;;;18.80;99.90;;;;;;4961344;28;20567;-80
2023/05/18 10:54:22;;;;;;;6.27;4.17;;;18.70;99.90;;;;;;4959321;28;20235;-80
2023/05/18 10:56:53;;;;;;;9.83;3.80;;;18.60;99.90;;;;;;4961935;28;20208;-82
2023/05/18 10:59:22;;;;;;;7.17;4.37;;;18.50;99.90;;;;;;4959261;28;20200;-80
2023/05/18 11:01:51;;;;;;;10.03;6.37;;;18.50;99.90;;;;;;4971178;28;20202;-80
2023/05/18 11:04:24;;;;;;;8.57;4.90;;;18.30;99.90;;;;;;4958927;28;20218;-81
2023/05/18 11:06:57;;;;;;;8.83;4.57;;;18.50;99.90;;;;;;4956561;28;20213;-80
2023/05/18 11:09:24;;;;;;;8.20;4.20;;;18.50;99.90;;;;;;4967963;28;20252;-80
2023/05/18 11:11:55;;;;;;;7.90;4.30;;;18.60;99.90;;;;;;4971604;28;20244;-81
2023/05/18 11:14:26;;;;;;;8.30;4.07;;;18.40;99.90;;;;;;4967022;28;20275;-80
2023/05/18 11:16:54;;;;;;;8.73;4.00;;;18.60;99.90;;;;;;4977431;28;20289;-80
2023/05/18 11:19:25;;;;;;;9.40;3.70;;;18.70;99.90;;;;;;4970619;28;20206;-81
2023/05/18 11:21:53;;;;;;;7.47;4.40;;;18.80;99.90;;;;;;4973957;28;20209;-80
2023/05/18 11:24:25;;;;;;;6.10;3.70;;;18.60;99.90;;;;;;4969959;28;20229;-80
2023/05/18 11:26:54;;;;;;;7.70;3.93;;;18.70;99.90;;;;;;4968000;28;20213;-80
2023/05/18 11:29:23;;;;;;;6.10;3.40;;;18.90;99.90;;;;;;4976910;28;20224;-81
2023/05/18 11:31:52;;;;;;;4.77;3.40;;;18.80;99.90;;;;;;4968677;28;20213;-81
2023/05/18 11:34:39;;;;;;;8.30;3.80;;;18.60;99.90;;;;;;4977037;28;20731;-80
2023/05/18 11:37:08;;;;;;;7.87;3.53;;;18.40;99.90;;;;;;4966211;28;20205;-79
2023/05/18 11:39:35;;;;;;;6.07;3.73;;;18.40;99.90;;;;;;4968902;28;20220;-81
2023/05/18 11:42:07;;;;;;;6.87;3.73;;;18.30;99.90;;;;;;4970174;28;20201;-80
2023/05/18 11:44:34;;;;;;;5.60;3.33;;;18.60;99.90;;;;;;4976391;28;20218;-80
2023/05/18 11:47:02;;;;;;;8.77;3.90;;;18.80;99.90;;;;;;4976718;28;20689;-80
2023/05/18 11:49:31;;;;;;;6.03;3.80;;;19.00;99.90;;;;;;4976500;28;20209;-80
2023/05/18 11:52:03;;;;;;;6.13;3.50;;;18.80;99.90;;;;;;4978043;28;20209;-81
2023/05/18 11:54:42;;;;;;;8.10;4.07;;;18.60;99.90;;;;;;4970032;28;20225;-80
2023/05/18 11:57:11;;;;;;;8.17;3.87;;;18.60;99.90;;;;;;4970894;28;20205;-78
2023/05/18 11:59:40;;;;;;;5.47;3.40;;;18.60;99.90;;;;;;4984146;28;20244;-79
2023/05/18 12:02:10;;;;;;;6.60;3.40;;;18.70;99.90;;;;;;4964007;28;20201;-77
2023/05/18 12:04:43;;;;;;;7.40;3.83;;;19.10;99.90;;;;;;4972917;28;20653;-77
2023/05/18 12:07:10;;;;;;;6.87;4.03;;;18.90;99.90;;;;;;4972210;28;20202;-75
2023/05/18 12:09:41;;;;;;;6.83;4.07;;;19.00;99.90;;;;;;4976142;28;20190;-77
2023/05/18 12:12:10;;;;;;;6.90;3.57;;;18.90;99.90;;;;;;4969696;28;20205;-78
2023/05/18 12:14:40;;;;;;;5.90;3.67;;;19.00;99.90;;;;;;4973752;28;20264;-77
2023/05/18 12:17:09;;;;;;;5.80;3.90;;;18.90;99.90;;;;;;4979433;28;20736;-77
2023/05/18 12:19:42;;;;;;;7.33;3.50;;;18.70;99.90;;;;;;4981539;28;20224;-78
2023/05/18 12:22:10;;;;;;;7.07;3.87;;;18.40;99.90;;;;;;4980817;28;20297;-78
2023/05/18 12:24:38;;;;;;;6.57;3.87;;;18.50;99.90;;;;;;4975624;28;20247;-77
2023/05/18 12:27:07;;;;;;;7.83;4.07;;;18.60;99.90;;;;;;4980059;28;20748;-77
2023/05/18 12:29:38;;;;;;;9.27;3.47;;;18.50;99.90;;;;;;4979884;28;20236;-81
2023/05/18 12:32:07;;;;;;;5.97;3.47;;;18.60;99.90;;;;;;4978233;28;20276;-82
2023/05/18 12:34:34;;;;;;;5.80;3.60;;;18.70;99.90;;;;;;4975935;28;20255;-80
2023/05/18 12:37:00;;;;;;;9.43;3.87;;;18.60;99.90;;;;;;4976655;28;20232;-82
2023/05/18 12:39:27;;;;;;;8.00;3.30;;;18.50;99.90;;;;;;4969462;28;20267;-82
2023/05/18 12:42:07;;;;;;;6.00;3.57;;;18.40;99.90;;;;;;4976340;28;20200;-81
2023/05/18 12:44:36;;;;;;;8.27;3.60;;;18.50;99.90;;;;;;4969146;28;20650;-82
2023/05/18 12:47:02;;;;;;;5.77;3.47;;;18.70;99.90;;;;;;4972786;28;20213;-80
2023/05/18 12:49:30;;;;;;;6.53;3.53;;;18.70;99.90;;;;;;4966370;28;20207;-81